createdAt,value
2018-07-22T00:00:10.524Z,4.33
2018-07-22T00:02:39.505Z,3.95
2018-07-22T00:05:08.214Z,4.17
2018-07-22T00:07:36.611Z,3.80
2018-07-22T00:10:05.417Z,4.10
2018-07-22T00:12:33.730Z,4.05
2018-07-22T00:15:02.199Z,4.58
2018-07-22T00:17:30.561Z,4.83
2018-07-22T00:19:58.996Z,3.67
2018-07-22T00:22:27.380Z,3.87
2018-07-22T00:24:55.747Z,4.42
2018-07-22T00:27:24.126Z,5.00
2018-07-22T00:29:52.464Z,4.40
2018-07-22T00:32:20.832Z,4.40
2018-07-22T00:34:49.145Z,5.08
2018-07-22T00:37:17.537Z,4.47
2018-07-22T00:39:45.834Z,4.60
2018-07-22T00:42:14.223Z,4.25
2018-07-22T00:44:42.593Z,4.58
2018-07-22T00:47:10.940Z,4.30
2018-07-22T00:49:39.276Z,4.53
2018-07-22T00:52:07.615Z,5.33
2018-07-22T00:54:35.982Z,4.15
2018-07-22T00:57:06.703Z,3.92
2018-07-22T00:59:35.081Z,4.53
2018-07-22T01:02:03.485Z,5.08
2018-07-22T01:04:31.794Z,4.45
2018-07-22T01:07:00.155Z,4.62
2018-07-22T01:09:28.499Z,5.53
2018-07-22T01:11:56.846Z,4.85
2018-07-22T01:14:24.900Z,5.50
2018-07-22T01:16:53.302Z,5.17
2018-07-22T01:19:21.379Z,4.55
2018-07-22T01:21:49.785Z,5.95
2018-07-22T01:24:18.102Z,6.10
2018-07-22T01:26:46.541Z,5.33
2018-07-22T01:29:14.872Z,5.30
2018-07-22T01:31:43.278Z,5.17
2018-07-22T01:34:11.620Z,5.37
2018-07-22T01:36:40.008Z,5.40
2018-07-22T01:39:09.594Z,4.55
2018-07-22T01:41:38.099Z,5.65
2018-07-22T01:44:06.434Z,4.60
2018-07-22T01:46:34.786Z,5.12
2018-07-22T01:49:03.400Z,4.78
2018-07-22T01:51:31.797Z,4.70
2018-07-22T01:54:00.141Z,5.35
2018-07-22T01:56:28.959Z,6.03
2018-07-22T01:58:57.279Z,4.80
2018-07-22T02:01:25.819Z,5.03
2018-07-22T02:03:54.308Z,4.85
2018-07-22T02:06:22.722Z,5.30
2018-07-22T02:08:51.460Z,5.47
2018-07-22T02:11:19.914Z,4.60
2018-07-22T02:13:48.249Z,5.25
2018-07-22T02:16:16.612Z,5.03
2018-07-22T02:18:44.967Z,6.00
2018-07-22T02:21:13.412Z,4.83
2018-07-22T02:23:41.750Z,4.75
2018-07-22T02:26:10.151Z,5.65
2018-07-22T02:28:38.490Z,4.92
2018-07-22T02:31:07.535Z,5.25
2018-07-22T02:33:35.889Z,6.20
2018-07-22T02:36:04.247Z,5.12
2018-07-22T02:38:32.721Z,5.87
2018-07-22T02:41:01.185Z,5.42
2018-07-22T02:43:36.284Z,5.78
2018-07-22T02:46:04.659Z,5.97
2018-07-22T02:48:33.035Z,6.45
2018-07-22T02:51:01.451Z,4.60
2018-07-22T02:53:29.823Z,6.42
2018-07-22T02:55:58.287Z,6.10
2018-07-22T02:58:26.634Z,5.03
2018-07-22T03:00:54.980Z,5.60
2018-07-22T03:03:23.580Z,6.70
2018-07-22T03:05:51.925Z,6.40
2018-07-22T03:08:20.306Z,6.70
2018-07-22T03:10:48.658Z,6.30
2018-07-22T03:13:17.043Z,5.65
2018-07-22T03:15:45.410Z,5.75
2018-07-22T03:18:13.797Z,6.03
2018-07-22T03:20:42.134Z,6.30
2018-07-22T03:23:11.562Z,6.25
2018-07-22T03:25:39.686Z,5.90
2018-07-22T03:28:08.238Z,6.08
2018-07-22T03:30:36.632Z,6.22
2018-07-22T03:33:05.017Z,5.80
2018-07-22T03:35:33.496Z,5.85
2018-07-22T03:38:01.897Z,6.00
2018-07-22T03:40:30.475Z,5.72
2018-07-22T03:42:58.953Z,5.00
2018-07-22T03:45:27.308Z,6.95
2018-07-22T03:47:55.693Z,6.75
2018-07-22T03:50:24.062Z,7.03
2018-07-22T03:52:52.435Z,6.22
2018-07-22T03:55:20.812Z,6.92
2018-07-22T03:57:49.216Z,6.22
2018-07-22T04:00:17.713Z,6.45
2018-07-22T04:02:46.076Z,6.47
2018-07-22T04:05:14.453Z,6.05
2018-07-22T04:07:42.914Z,6.35
2018-07-22T04:10:11.356Z,5.47
2018-07-22T04:12:39.784Z,5.62
2018-07-22T04:15:08.198Z,5.42
2018-07-22T04:17:36.600Z,6.05
2018-07-22T04:20:05.417Z,5.25
2018-07-22T04:22:34.120Z,5.62
2018-07-22T04:25:02.846Z,7.40
2018-07-22T04:27:31.277Z,6.00
2018-07-22T04:29:59.634Z,6.53
2018-07-22T04:32:27.984Z,6.78
2018-07-22T04:34:56.353Z,6.78
2018-07-22T04:37:24.689Z,6.15
2018-07-22T04:39:53.084Z,5.75
2018-07-22T04:42:21.499Z,6.42
2018-07-22T04:44:49.858Z,6.72
2018-07-22T04:47:18.202Z,5.65
2018-07-22T04:49:46.558Z,6.25
2018-07-22T04:52:14.893Z,5.65
2018-07-22T04:54:43.350Z,6.22
2018-07-22T04:57:11.706Z,6.60
2018-07-22T04:59:40.081Z,6.20
2018-07-22T05:02:10.487Z,6.40
2018-07-22T05:04:38.922Z,5.80
2018-07-22T05:07:07.272Z,6.90
2018-07-22T05:09:35.651Z,5.83
2018-07-22T05:12:03.997Z,6.33
2018-07-22T05:14:32.431Z,7.25
2018-07-22T05:17:00.799Z,5.40
2018-07-22T05:19:29.337Z,6.47
2018-07-22T05:21:57.688Z,7.47
2018-07-22T05:24:26.095Z,5.30
2018-07-22T05:26:54.475Z,6.33
2018-07-22T05:29:22.835Z,6.05
2018-07-22T05:31:51.183Z,5.90
2018-07-22T05:34:21.801Z,5.90
2018-07-22T05:36:50.161Z,6.15
2018-07-22T05:39:18.522Z,5.67
2018-07-22T05:41:46.888Z,7.03
2018-07-22T05:44:15.271Z,7.05
2018-07-22T05:46:43.640Z,7.35
2018-07-22T05:49:12.092Z,6.53
2018-07-22T05:51:40.418Z,6.12
2018-07-22T05:54:08.786Z,6.95
2018-07-22T05:56:37.206Z,7.65
2018-07-22T05:59:05.627Z,7.03
2018-07-22T06:01:34.067Z,7.33
2018-07-22T06:04:02.647Z,6.08
2018-07-22T06:06:31.004Z,7.67
2018-07-22T06:08:59.832Z,7.45
2018-07-22T06:11:30.290Z,5.50
2018-07-22T06:14:00.090Z,7.17
2018-07-22T06:16:28.474Z,8.03
2018-07-22T06:18:56.899Z,7.40
2018-07-22T06:21:25.287Z,5.70
2018-07-22T06:23:53.660Z,6.87
2018-07-22T06:26:22.069Z,7.85
2018-07-22T06:28:50.432Z,7.83
2018-07-22T06:31:18.820Z,7.70
2018-07-22T06:33:47.344Z,8.00
2018-07-22T06:36:15.683Z,6.45
2018-07-22T06:38:44.024Z,7.97
2018-07-22T06:41:12.465Z,7.03
2018-07-22T06:43:40.819Z,6.87
2018-07-22T06:46:09.936Z,7.15
2018-07-22T06:48:38.314Z,6.55
2018-07-22T06:51:06.709Z,7.78
2018-07-22T06:53:35.153Z,6.95
2018-07-22T06:56:03.519Z,6.45
2018-07-22T06:58:31.859Z,7.03
2018-07-22T07:01:00.328Z,7.67
2018-07-22T07:03:28.693Z,7.37
2018-07-22T07:05:57.119Z,6.78
2018-07-22T07:08:29.403Z,7.10
2018-07-22T07:10:57.843Z,7.92
2018-07-22T07:13:26.208Z,7.28
2018-07-22T07:15:54.598Z,6.85
2018-07-22T07:18:22.946Z,6.45
2018-07-22T07:20:51.353Z,7.05
2018-07-22T07:23:19.690Z,13.08
2018-07-22T07:25:48.021Z,7.08
2018-07-22T07:28:16.355Z,8.20
2018-07-22T07:30:44.756Z,10.45
2018-07-22T07:33:13.118Z,8.15
2018-07-22T07:35:41.584Z,6.20
2018-07-22T07:38:09.998Z,5.08
2018-07-22T07:40:38.436Z,6.53
2018-07-22T07:43:06.846Z,6.00
2018-07-22T07:45:35.201Z,6.03
2018-07-22T07:48:03.558Z,6.35
2018-07-22T07:50:31.919Z,5.15
2018-07-22T07:53:00.345Z,5.37
2018-07-22T07:55:28.684Z,5.70
2018-07-22T07:57:57.242Z,7.08
2018-07-22T08:00:25.601Z,5.78
2018-07-22T08:02:54.009Z,6.15
2018-07-22T08:05:22.436Z,6.53
2018-07-22T08:07:50.851Z,5.72
2018-07-22T08:10:19.195Z,6.37
2018-07-22T08:12:47.531Z,6.58
2018-07-22T08:15:15.909Z,6.85
2018-07-22T08:17:44.268Z,6.20
2018-07-22T08:20:15.586Z,6.15
2018-07-22T08:22:43.953Z,7.10
2018-07-22T08:25:12.370Z,6.28
2018-07-22T08:27:40.771Z,6.75
2018-07-22T08:30:09.121Z,7.10
2018-07-22T08:32:37.571Z,6.30
2018-07-22T08:35:05.946Z,6.12
2018-07-22T08:37:34.424Z,6.70
2018-07-22T08:40:02.761Z,6.20
2018-07-22T08:42:31.156Z,7.28
2018-07-22T08:44:59.576Z,13.53
2018-07-22T08:47:27.997Z,6.35
2018-07-22T08:49:56.366Z,6.40
2018-07-22T08:52:24.723Z,5.65
2018-07-22T08:54:55.074Z,6.15
2018-07-22T08:57:23.435Z,6.47
2018-07-22T08:59:52.001Z,6.35
2018-07-22T09:02:20.496Z,6.60
2018-07-22T09:04:48.870Z,6.75
2018-07-22T09:07:17.335Z,7.75
2018-07-22T09:09:45.668Z,7.80
2018-07-22T09:12:14.031Z,8.30
2018-07-22T09:14:42.855Z,6.30
2018-07-22T09:17:11.594Z,6.12
2018-07-22T09:19:39.992Z,6.72
2018-07-22T09:22:08.375Z,7.80
2018-07-22T09:24:36.732Z,6.95
2018-07-22T09:27:05.277Z,6.03
2018-07-22T09:29:33.669Z,6.12
2018-07-22T09:32:02.043Z,6.42
2018-07-22T09:34:30.368Z,5.25
2018-07-22T09:36:58.734Z,5.90
2018-07-22T09:39:27.095Z,5.72
2018-07-22T09:41:55.509Z,5.62
2018-07-22T09:44:23.833Z,5.75
2018-07-22T09:46:52.207Z,5.95
2018-07-22T09:49:20.569Z,5.33
2018-07-22T09:51:48.945Z,5.95
2018-07-22T09:54:17.256Z,5.28
2018-07-22T09:56:45.646Z,6.00
2018-07-22T09:59:14.028Z,7.15
2018-07-22T10:01:42.388Z,8.68
2018-07-22T10:04:10.752Z,5.58
2018-07-22T10:06:39.110Z,5.65
2018-07-22T10:09:09.025Z,5.37
2018-07-22T10:11:37.420Z,5.65
2018-07-22T10:14:05.948Z,5.75
2018-07-22T10:16:34.312Z,5.85
2018-07-22T10:19:02.676Z,5.15
2018-07-22T10:21:31.100Z,6.03
2018-07-22T10:23:59.563Z,5.70
2018-07-22T10:26:27.927Z,6.83
2018-07-22T10:28:56.300Z,8.25
2018-07-22T10:31:24.629Z,7.08
2018-07-22T10:33:53.017Z,5.35
2018-07-22T10:36:21.354Z,5.40
2018-07-22T10:38:49.716Z,5.65
2018-07-22T10:41:18.112Z,5.53
2018-07-22T10:43:46.541Z,5.92
2018-07-22T10:46:14.895Z,5.17
2018-07-22T10:48:43.228Z,5.92
2018-07-22T10:51:11.636Z,5.97
2018-07-22T10:53:40.018Z,5.37
2018-07-22T10:56:08.402Z,5.22
2018-07-22T10:58:36.738Z,5.37
2018-07-22T11:01:05.152Z,6.15
2018-07-22T11:03:33.495Z,6.35
2018-07-22T11:06:01.865Z,5.45
2018-07-22T11:08:30.219Z,5.28
2018-07-22T11:10:58.577Z,5.58
2018-07-22T11:13:27.040Z,5.90
2018-07-22T11:15:55.125Z,5.90
2018-07-22T11:18:23.533Z,5.17
2018-07-22T11:20:51.911Z,5.72
2018-07-22T11:23:20.274Z,5.58
2018-07-22T11:25:48.591Z,5.50
2018-07-22T11:28:16.961Z,4.80
2018-07-22T11:30:45.339Z,5.40
2018-07-22T11:33:13.810Z,5.15
2018-07-22T11:35:42.174Z,5.08
2018-07-22T11:38:10.570Z,5.78
2018-07-22T11:40:39.078Z,5.22
2018-07-22T11:43:07.558Z,5.58
2018-07-22T11:45:35.910Z,6.35
2018-07-22T11:48:04.270Z,5.45
2018-07-22T11:50:32.713Z,5.17
2018-07-22T11:53:01.013Z,5.47
2018-07-22T11:55:29.431Z,5.12
2018-07-22T11:57:57.786Z,5.30
2018-07-22T12:00:26.203Z,6.33
2018-07-22T12:02:54.606Z,5.53
2018-07-22T12:05:22.968Z,5.10
2018-07-22T12:07:51.345Z,5.78
2018-07-22T12:10:19.714Z,5.67
2018-07-22T12:12:48.109Z,11.50
2018-07-22T12:15:16.446Z,11.20
2018-07-22T12:17:44.847Z,6.40
2018-07-22T12:20:13.191Z,5.55
2018-07-22T12:22:41.584Z,5.47
2018-07-22T12:25:09.948Z,5.08
2018-07-22T12:27:38.317Z,5.37
2018-07-22T12:30:06.860Z,5.50
2018-07-22T12:32:35.191Z,5.85
2018-07-22T12:35:03.571Z,5.87
2018-07-22T12:37:32.001Z,6.20
2018-07-22T12:40:00.404Z,6.35
2018-07-22T12:42:31.982Z,5.87
2018-07-22T12:45:00.538Z,5.87
2018-07-22T12:47:28.975Z,5.78
2018-07-22T12:49:57.396Z,6.33
2018-07-22T12:52:25.704Z,6.58
2018-07-22T12:54:54.079Z,5.90
2018-07-22T12:57:22.479Z,5.62
2018-07-22T12:59:50.960Z,5.62
2018-07-22T13:02:19.410Z,5.55
2018-07-22T13:04:48.187Z,5.62
2018-07-22T13:07:20.272Z,6.33
2018-07-22T13:09:48.874Z,7.40
2018-07-22T13:12:22.782Z,10.32
2018-07-22T13:14:51.152Z,5.78
2018-07-22T13:17:19.753Z,6.45
2018-07-22T13:19:51.641Z,5.55
2018-07-22T13:22:20.048Z,5.83
2018-07-22T13:24:48.483Z,6.10
2018-07-22T13:27:17.013Z,5.40
2018-07-22T13:29:45.493Z,5.40
2018-07-22T13:32:13.977Z,5.53
2018-07-22T13:34:42.393Z,5.53
2018-07-22T13:37:10.818Z,5.78
2018-07-22T13:39:39.504Z,6.25
2018-07-22T13:42:08.154Z,6.55
2018-07-22T13:44:36.763Z,5.80
2018-07-22T13:47:06.231Z,5.80
2018-07-22T13:49:34.694Z,10.70
2018-07-22T13:52:10.471Z,6.53
2018-07-22T13:54:38.860Z,5.87
2018-07-22T13:57:10.491Z,6.05
2018-07-22T13:59:39.075Z,5.95
2018-07-22T14:02:07.902Z,5.80
2018-07-22T14:04:36.258Z,5.58
2018-07-22T14:07:04.580Z,6.17
2018-07-22T14:09:32.957Z,5.45
2018-07-22T14:12:17.459Z,6.25
2018-07-22T14:14:45.884Z,5.55
2018-07-22T14:17:15.746Z,6.12
2018-07-22T14:19:44.447Z,6.08
2018-07-22T14:22:12.815Z,5.92
2018-07-22T14:24:41.225Z,6.12
2018-07-22T14:27:09.674Z,5.47
2018-07-22T14:29:38.175Z,7.58
2018-07-22T14:32:06.703Z,7.83
2018-07-22T14:34:35.045Z,6.25
2018-07-22T14:37:03.484Z,6.15
2018-07-22T14:39:31.939Z,6.45
2018-07-22T14:42:00.302Z,5.53
2018-07-22T14:44:28.689Z,5.28
2018-07-22T14:46:56.852Z,5.75
2018-07-22T14:49:25.480Z,5.72
2018-07-22T14:51:54.184Z,5.60
2018-07-22T14:54:29.030Z,5.97
2018-07-22T14:56:57.395Z,5.08
2018-07-22T14:59:25.754Z,4.90
2018-07-22T15:01:54.173Z,6.00
2018-07-22T15:04:22.752Z,5.40
2018-07-22T15:06:51.304Z,5.60
2018-07-22T15:09:21.688Z,5.70
2018-07-22T15:11:50.084Z,5.47
2018-07-22T15:14:18.431Z,5.70
2018-07-22T15:16:46.819Z,5.08
2018-07-22T15:19:15.184Z,5.22
2018-07-22T15:21:43.572Z,6.12
2018-07-22T15:24:11.917Z,5.90
2018-07-22T15:26:40.271Z,5.28
2018-07-22T15:29:08.776Z,4.83
2018-07-22T15:31:37.161Z,5.60
2018-07-22T15:34:05.544Z,6.60
2018-07-22T15:36:33.897Z,5.28
2018-07-22T15:39:02.231Z,5.20
2018-07-22T15:41:33.953Z,5.40
2018-07-22T15:44:02.301Z,5.40
2018-07-22T15:46:31.820Z,5.33
2018-07-22T15:49:04.101Z,5.35
2018-07-22T15:51:32.504Z,5.75
2018-07-22T15:54:00.898Z,5.40
2018-07-22T15:56:30.231Z,5.58
2018-07-22T15:58:58.567Z,5.22
2018-07-22T16:01:26.923Z,5.78
2018-07-22T16:03:55.389Z,6.00
2018-07-22T16:06:23.772Z,5.72
2018-07-22T16:08:52.295Z,5.47
2018-07-22T16:11:20.680Z,5.35
2018-07-22T16:13:49.201Z,5.50
2018-07-22T16:16:17.660Z,4.60
2018-07-22T16:18:46.019Z,5.30
2018-07-22T16:21:14.379Z,5.75
2018-07-22T16:23:42.749Z,5.45
2018-07-22T16:26:11.111Z,5.17
2018-07-22T16:28:39.444Z,5.58
2018-07-22T16:31:07.840Z,5.08
2018-07-22T16:33:36.182Z,5.58
2018-07-22T16:36:04.595Z,5.42
2018-07-22T16:38:32.956Z,6.28
2018-07-22T16:41:01.310Z,5.35
2018-07-22T16:43:29.640Z,6.15
2018-07-22T16:45:57.972Z,5.25
2018-07-22T16:48:26.326Z,6.05
2018-07-22T16:50:54.683Z,6.42
2018-07-22T16:53:23.091Z,5.45
2018-07-22T16:55:51.409Z,7.03
2018-07-22T16:58:19.744Z,5.67
2018-07-22T17:00:48.523Z,6.62
2018-07-22T17:03:16.852Z,5.92
2018-07-22T17:05:45.213Z,6.05
2018-07-22T17:08:13.641Z,5.58
2018-07-22T17:10:41.977Z,6.28
2018-07-22T17:13:10.317Z,5.58
2018-07-22T17:15:38.733Z,6.00
2018-07-22T17:18:06.851Z,7.47
2018-07-22T17:20:35.188Z,5.72
2018-07-22T17:23:03.542Z,6.12
2018-07-22T17:25:31.874Z,6.25
2018-07-22T17:28:00.287Z,5.80
2018-07-22T17:30:28.713Z,5.55
2018-07-22T17:32:57.049Z,5.92
2018-07-22T17:35:25.399Z,5.87
2018-07-22T17:37:53.777Z,6.15
2018-07-22T17:40:22.147Z,6.20
2018-07-22T17:42:50.610Z,5.83
2018-07-22T17:45:19.022Z,6.30
2018-07-22T17:47:47.360Z,6.25
2018-07-22T17:50:15.707Z,6.70
2018-07-22T17:52:44.063Z,5.42
2018-07-22T17:55:12.444Z,7.28
2018-07-22T17:57:40.865Z,6.60
2018-07-22T18:00:09.505Z,7.25
2018-07-22T18:02:39.546Z,8.15
2018-07-22T18:05:07.884Z,6.85
2018-07-22T18:07:36.307Z,6.00
2018-07-22T18:10:04.651Z,6.10
2018-07-22T18:12:33.025Z,5.95
2018-07-22T18:15:01.402Z,5.90
2018-07-22T18:17:29.825Z,5.75
2018-07-22T18:19:58.180Z,7.00
2018-07-22T18:22:26.551Z,6.35
2018-07-22T18:24:54.993Z,5.83
2018-07-22T18:27:23.503Z,10.53
2018-07-22T18:29:51.895Z,17.87
2018-07-22T18:32:20.295Z,11.08
2018-07-22T18:34:48.744Z,7.83
2018-07-22T18:37:17.228Z,7.00
2018-07-22T18:39:45.502Z,8.18
2018-07-22T18:42:13.879Z,8.03
2018-07-22T18:44:42.279Z,7.33
2018-07-22T18:47:10.749Z,8.45
2018-07-22T18:49:39.123Z,6.95
2018-07-22T18:52:07.491Z,6.90
2018-07-22T18:54:35.954Z,7.30
2018-07-22T18:57:04.365Z,7.47
2018-07-22T18:59:32.735Z,7.78
2018-07-22T19:02:01.120Z,7.10
2018-07-22T19:04:29.528Z,8.43
2018-07-22T19:06:57.917Z,7.92
2018-07-22T19:09:26.280Z,8.90
2018-07-22T19:11:54.696Z,7.55
2018-07-22T19:14:23.046Z,6.80
2018-07-22T19:16:51.490Z,7.10
2018-07-22T19:19:19.914Z,7.35
2018-07-22T19:21:48.285Z,6.92
2018-07-22T19:24:17.501Z,6.92
2018-07-22T19:26:45.884Z,7.10
2018-07-22T19:29:14.270Z,7.42
2018-07-22T19:31:42.635Z,6.75
2018-07-22T19:34:11.000Z,7.08
2018-07-22T19:36:39.552Z,7.30
2018-07-22T19:39:08.517Z,6.90
2018-07-22T19:41:37.214Z,7.90
2018-07-22T19:44:05.666Z,7.15
2018-07-22T19:46:34.010Z,8.75
2018-07-22T19:49:02.370Z,8.25
2018-07-22T19:51:30.777Z,7.75
2018-07-22T19:53:58.882Z,7.25
2018-07-22T19:56:27.240Z,8.43
2018-07-22T19:58:55.603Z,9.58
2018-07-22T20:01:24.023Z,8.30
2018-07-22T20:03:52.379Z,8.18
2018-07-22T20:06:20.462Z,9.10
2018-07-22T20:08:48.857Z,7.08
2018-07-22T20:11:17.217Z,8.23
2018-07-22T20:13:45.641Z,7.75
2018-07-22T20:16:14.039Z,8.10
2018-07-22T20:18:42.435Z,8.18
2018-07-22T20:21:11.826Z,8.08
2018-07-22T20:23:40.307Z,7.92
2018-07-22T20:26:08.642Z,7.22
2018-07-22T20:28:37.011Z,7.28
2018-07-22T20:31:05.824Z,8.70
2018-07-22T20:33:34.179Z,9.90
2018-07-22T20:36:07.552Z,9.45
2018-07-22T20:38:35.907Z,7.45
2018-07-22T20:41:04.322Z,7.17
2018-07-22T20:43:32.740Z,6.62
2018-07-22T20:46:01.071Z,6.75
2018-07-22T20:48:29.492Z,6.50
2018-07-22T20:50:58.062Z,5.80
2018-07-22T20:53:26.434Z,7.53
2018-07-22T20:55:54.817Z,6.58
2018-07-22T20:58:23.210Z,7.33
2018-07-22T21:00:51.627Z,7.87
2018-07-22T21:03:19.999Z,7.67
2018-07-22T21:05:48.364Z,8.15
2018-07-22T21:08:16.726Z,7.03
2018-07-22T21:10:45.088Z,7.40
2018-07-22T21:13:16.863Z,7.35
2018-07-22T21:15:45.288Z,7.33
2018-07-22T21:18:13.684Z,8.18
2018-07-22T21:20:42.164Z,7.72
2018-07-22T21:23:10.606Z,7.53
2018-07-22T21:25:38.979Z,8.38
2018-07-22T21:28:07.316Z,7.62
2018-07-22T21:30:35.687Z,6.83
2018-07-22T21:33:04.056Z,7.87
2018-07-22T21:35:32.513Z,8.40
2018-07-22T21:38:00.870Z,7.83
2018-07-22T21:40:29.323Z,7.25
2018-07-22T21:42:57.757Z,7.92
2018-07-22T21:45:25.937Z,8.45
2018-07-22T21:47:54.348Z,10.80
2018-07-22T21:50:22.720Z,8.73
2018-07-22T21:52:51.064Z,7.78
2018-07-22T21:55:19.574Z,8.18
2018-07-22T21:57:47.915Z,9.05
2018-07-22T22:00:27.159Z,9.80
2018-07-22T22:02:55.590Z,9.83
2018-07-22T22:05:23.976Z,9.83
2018-07-22T22:07:52.384Z,8.85
2018-07-22T22:10:20.761Z,8.80
2018-07-22T22:12:49.160Z,8.13
2018-07-22T22:15:27.197Z,8.75
2018-07-22T22:17:59.770Z,10.00
2018-07-22T22:20:28.714Z,7.92
2018-07-22T22:22:57.256Z,10.60
2018-07-22T22:25:25.634Z,8.18
2018-07-22T22:27:54.106Z,8.40
2018-07-22T22:30:22.563Z,7.85
2018-07-22T22:32:50.919Z,8.80
2018-07-22T22:35:19.333Z,8.43
2018-07-22T22:37:47.721Z,8.48
2018-07-22T22:40:16.514Z,7.72
2018-07-22T22:42:45.881Z,8.58
2018-07-22T22:45:14.722Z,8.10
2018-07-22T22:47:43.056Z,9.05
2018-07-22T22:50:11.478Z,8.53
2018-07-22T22:52:39.851Z,9.45
2018-07-22T22:55:08.303Z,7.65
2018-07-22T22:57:36.647Z,8.78
2018-07-22T23:00:05.761Z,8.03
2018-07-22T23:02:36.080Z,8.58
2018-07-22T23:05:05.836Z,8.68
2018-07-22T23:07:34.212Z,8.75
2018-07-22T23:10:02.888Z,8.03
2018-07-22T23:12:31.222Z,8.63
2018-07-22T23:14:59.332Z,8.80
2018-07-22T23:17:27.669Z,8.83
2018-07-22T23:19:55.903Z,9.33
2018-07-22T23:22:24.255Z,10.05
2018-07-22T23:24:52.598Z,9.18
2018-07-22T23:27:21.157Z,9.15
2018-07-22T23:29:49.587Z,10.30
2018-07-22T23:32:17.953Z,10.40
2018-07-22T23:34:46.341Z,10.23
2018-07-22T23:37:14.669Z,9.68
2018-07-22T23:39:43.045Z,9.43
2018-07-22T23:42:11.406Z,10.15
2018-07-22T23:44:39.768Z,10.13
2018-07-22T23:47:08.224Z,10.98
2018-07-22T23:49:37.596Z,10.88
2018-07-22T23:52:05.959Z,10.70
2018-07-22T23:54:34.401Z,10.30
2018-07-22T23:57:02.769Z,10.72
2018-07-22T23:59:31.177Z,11.12
